createdAt,value
2023-04-01T00:01:48.696Z,2.67
2023-04-01T00:04:20.032Z,2.20
2023-04-01T00:06:50.958Z,2.13
2023-04-01T00:09:21.347Z,3.23
2023-04-01T00:11:52.039Z,2.17
2023-04-01T00:14:22.203Z,3.17
2023-04-01T00:16:54.429Z,3.30
2023-04-01T00:19:27.379Z,3.33
2023-04-01T00:21:58.738Z,2.67
2023-04-01T00:24:29.132Z,3.00
2023-04-01T00:26:59.570Z,2.90
2023-04-01T00:29:32.198Z,3.10
2023-04-01T00:32:02.897Z,2.90
2023-04-01T00:34:34.621Z,2.20
2023-04-01T00:37:05.060Z,2.77
2023-04-01T00:39:37.360Z,2.60
2023-04-01T00:42:07.959Z,2.20
2023-04-01T00:44:39.611Z,3.03
2023-04-01T00:47:14.542Z,2.20
2023-04-01T00:49:54.260Z,3.40
2023-04-01T00:52:26.985Z,3.30
2023-04-01T00:54:59.668Z,3.03
2023-04-01T00:57:32.735Z,2.87
2023-04-01T01:00:04.246Z,2.37
2023-04-01T01:02:36.402Z,3.57
2023-04-01T01:05:09.805Z,4.27
2023-04-01T01:07:44.706Z,3.10
2023-04-01T01:10:19.936Z,3.43
2023-04-01T01:12:59.228Z,2.77
2023-04-01T01:15:34.075Z,3.00
2023-04-01T01:18:09.261Z,3.13
2023-04-01T01:21:07.209Z,3.17
2023-04-01T01:24:14.529Z,4.00
2023-04-01T01:27:00.030Z,3.70
2023-04-01T01:30:08.220Z,2.63
2023-04-01T01:33:17.361Z,2.80
2023-04-01T01:35:52.383Z,3.43
2023-04-01T01:38:26.350Z,3.90
2023-04-01T01:40:59.042Z,3.50
2023-04-01T01:43:34.298Z,3.27
2023-04-01T01:46:09.161Z,4.27
2023-04-01T01:48:39.647Z,3.23
2023-04-01T01:51:11.773Z,3.47
2023-04-01T01:53:42.607Z,2.80
2023-04-01T01:56:15.492Z,3.40
2023-04-01T01:58:47.318Z,4.00
2023-04-01T02:01:19.932Z,2.77
2023-04-01T02:03:51.237Z,3.03
2023-04-01T02:06:25.766Z,3.97
2023-04-01T02:08:59.008Z,2.90
2023-04-01T02:11:32.767Z,3.10
2023-04-01T02:14:05.951Z,3.17
2023-04-01T02:16:39.069Z,4.40
2023-04-01T02:19:10.423Z,2.77
2023-04-01T02:21:43.921Z,4.00
2023-04-01T02:24:16.708Z,3.00
2023-04-01T02:26:49.072Z,4.83
2023-04-01T02:29:21.552Z,3.10
2023-04-01T02:31:52.235Z,2.73
2023-04-01T02:34:22.445Z,3.67
2023-04-01T02:36:54.939Z,3.57
2023-04-01T02:39:27.149Z,3.43
2023-04-01T02:41:57.543Z,2.93
2023-04-01T02:44:28.717Z,2.97
2023-04-01T02:46:58.577Z,4.60
2023-04-01T02:49:28.555Z,8.50
2023-04-01T02:52:00.219Z,6.80
2023-04-01T02:54:31.299Z,7.93
2023-04-01T02:57:02.810Z,6.63
2023-04-01T02:59:33.153Z,6.43
2023-04-01T03:02:03.985Z,4.27
2023-04-01T03:04:34.570Z,3.20
2023-04-01T03:07:06.385Z,3.77
2023-04-01T03:09:37.830Z,2.47
2023-04-01T03:12:09.389Z,3.40
2023-04-01T03:14:39.392Z,3.00
2023-04-01T03:17:11.597Z,3.37
2023-04-01T03:19:41.612Z,2.67
2023-04-01T03:22:14.858Z,3.20
2023-04-01T03:24:45.867Z,3.30
2023-04-01T03:27:18.453Z,3.17
2023-04-01T03:29:48.099Z,3.93
2023-04-01T03:32:19.543Z,5.43
2023-04-01T03:34:49.156Z,2.20
2023-04-01T03:37:30.835Z,2.97
2023-04-01T03:40:02.856Z,4.90
2023-04-01T03:42:35.085Z,3.27
2023-04-01T03:45:05.205Z,2.83
2023-04-01T03:47:38.374Z,3.10
2023-04-01T03:50:11.475Z,3.20
2023-04-01T03:52:43.737Z,2.90
2023-04-01T03:55:15.603Z,2.90
2023-04-01T03:57:45.417Z,3.00
2023-04-01T04:00:16.790Z,4.20
2023-04-01T04:02:47.281Z,3.00
2023-04-01T04:05:18.852Z,2.90
2023-04-01T04:07:51.425Z,3.07
2023-04-01T04:10:23.658Z,3.43
2023-04-01T04:12:55.195Z,3.20
2023-04-01T04:15:26.437Z,3.27
2023-04-01T04:17:56.590Z,4.10
2023-04-01T04:20:26.757Z,3.67
2023-04-01T04:22:58.922Z,3.53
2023-04-01T04:25:28.667Z,3.37
2023-04-01T04:27:59.181Z,3.53
2023-04-01T04:30:29.531Z,3.23
2023-04-01T04:32:59.700Z,3.50
2023-04-01T04:35:30.722Z,3.87
2023-04-01T04:38:06.697Z,3.43
2023-04-01T04:40:38.648Z,4.33
2023-04-01T04:43:09.330Z,3.80
2023-04-01T04:45:39.783Z,4.27
2023-04-01T04:48:12.189Z,4.30
2023-04-01T04:50:44.443Z,5.57
2023-04-01T04:53:17.714Z,3.30
2023-04-01T04:55:48.155Z,3.43
2023-04-01T04:58:18.802Z,3.83
2023-04-01T05:00:51.908Z,3.80
2023-04-01T05:03:22.632Z,2.70
2023-04-01T05:05:56.288Z,4.30
2023-04-01T05:08:28.384Z,4.00
2023-04-01T05:10:58.517Z,3.90
2023-04-01T05:13:28.632Z,3.37
2023-04-01T05:15:58.694Z,3.03
2023-04-01T05:18:29.087Z,3.40
2023-04-01T05:21:01.430Z,4.20
2023-04-01T05:23:35.025Z,4.87
2023-04-01T05:26:06.547Z,4.47
2023-04-01T05:28:39.720Z,7.10
2023-04-01T05:31:11.473Z,8.30
2023-04-01T05:33:44.102Z,9.30
2023-04-01T05:36:16.371Z,8.00
2023-04-01T05:38:50.237Z,7.50
2023-04-01T05:41:20.994Z,6.70
2023-04-01T05:43:51.723Z,8.97
2023-04-01T05:46:21.517Z,6.30
2023-04-01T05:48:52.543Z,6.40
2023-04-01T05:51:22.594Z,5.47
2023-04-01T05:53:54.342Z,5.23
2023-04-01T05:56:24.826Z,4.90
2023-04-01T05:58:57.773Z,4.87
2023-04-01T06:01:28.223Z,5.67
2023-04-01T06:03:58.831Z,4.73
2023-04-01T06:06:32.227Z,5.67
2023-04-01T06:09:13.253Z,5.93
2023-04-01T06:11:52.793Z,4.50
2023-04-01T06:14:35.566Z,4.43
2023-04-01T06:17:18.911Z,4.17
2023-04-01T06:19:55.878Z,5.23
2023-04-01T06:22:44.599Z,3.77
2023-04-01T06:25:34.846Z,6.00
2023-04-01T06:28:33.455Z,6.90
2023-04-01T06:31:09.971Z,4.07
2023-04-01T06:33:54.749Z,3.47
2023-04-01T06:36:40.283Z,4.50
2023-04-01T06:39:27.987Z,4.40
2023-04-01T06:42:22.239Z,4.37
2023-04-01T06:45:01.899Z,4.13
2023-04-01T06:47:47.085Z,4.17
2023-04-01T06:50:26.759Z,4.43
2023-04-01T06:53:12.987Z,4.03
2023-04-01T06:55:47.682Z,3.87
2023-04-01T06:58:25.259Z,4.47
2023-04-01T07:00:59.822Z,3.97
2023-04-01T07:03:36.172Z,5.30
2023-04-01T07:06:07.919Z,3.80
2023-04-01T07:08:40.745Z,7.00
2023-04-01T07:11:14.549Z,4.20
2023-04-01T07:13:50.820Z,3.30
2023-04-01T07:16:24.848Z,4.43
2023-04-01T07:18:59.773Z,4.37
2023-04-01T07:21:36.259Z,3.90
2023-04-01T07:24:12.046Z,4.33
2023-04-01T07:26:44.544Z,4.07
2023-04-01T07:29:18.260Z,3.50
2023-04-01T07:32:12.962Z,6.20
2023-04-01T07:34:50.909Z,3.77
2023-04-01T07:37:25.945Z,5.17
2023-04-01T07:40:04.574Z,4.83
2023-04-01T07:42:43.294Z,4.37
2023-04-01T07:45:20.274Z,4.70
2023-04-01T07:48:00.622Z,3.23
2023-04-01T07:50:33.123Z,6.77
2023-04-01T07:53:11.455Z,4.50
2023-04-01T07:55:46.826Z,3.50
2023-04-01T07:58:20.991Z,5.70
2023-04-01T08:00:57.921Z,4.53
2023-04-01T08:03:47.172Z,5.10
2023-04-01T08:06:21.630Z,7.67
2023-04-01T08:09:02.778Z,9.13
2023-04-01T08:11:46.866Z,5.97
2023-04-01T08:14:24.398Z,5.93
2023-04-01T08:17:05.250Z,7.33
2023-04-01T08:19:46.258Z,6.20
2023-04-01T08:22:22.637Z,5.67
2023-04-01T08:24:55.507Z,4.50
2023-04-01T08:27:31.287Z,5.67
2023-04-01T08:30:18.340Z,4.87
2023-04-01T08:32:54.140Z,7.07
2023-04-01T08:35:33.818Z,7.30
2023-04-01T08:38:12.344Z,5.23
2023-04-01T08:40:59.528Z,4.47
2023-04-01T08:43:51.007Z,4.73
2023-04-01T08:46:48.881Z,3.20
2023-04-01T08:49:36.084Z,2.90
2023-04-01T08:52:39.930Z,2.57
2023-04-01T08:55:40.900Z,2.90
2023-04-01T08:58:52.839Z,3.00
2023-04-01T09:01:44.227Z,3.40
2023-04-01T09:04:32.667Z,1.70
2023-04-01T09:07:12.885Z,2.67
2023-04-01T09:10:09.639Z,5.07
2023-04-01T09:12:58.805Z,2.50
2023-04-01T09:15:58.946Z,2.27
2023-04-01T09:19:04.236Z,2.97
2023-04-01T09:22:03.947Z,2.47
2023-04-01T09:24:46.658Z,3.40
2023-04-01T09:27:30.474Z,4.43
2023-04-01T09:30:33.245Z,3.83
2023-04-01T09:33:51.121Z,2.40
2023-04-01T09:36:34.946Z,7.00
2023-04-01T09:39:21.784Z,3.63
2023-04-01T09:42:09.414Z,3.30
2023-04-01T09:44:43.148Z,3.00
2023-04-01T09:47:25.790Z,1.93
2023-04-01T09:50:18.159Z,2.10
2023-04-01T09:52:54.358Z,1.53
2023-04-01T09:55:58.771Z,3.50
2023-04-01T09:58:53.764Z,1.73
2023-04-01T10:02:02.967Z,1.53
2023-04-01T10:05:00.054Z,2.80
2023-04-01T10:07:54.600Z,2.03
2023-04-01T10:10:51.561Z,3.43
2023-04-01T10:13:51.249Z,2.50
2023-04-01T10:16:54.295Z,1.97
2023-04-01T10:20:04.605Z,4.07
2023-04-01T10:23:02.701Z,1.53
2023-04-01T10:25:56.796Z,1.67
2023-04-01T10:29:01.699Z,1.73
2023-04-01T10:32:04.427Z,0.80
2023-04-01T10:35:08.957Z,0.70
2023-04-01T10:38:03.870Z,1.77
2023-04-01T10:41:09.872Z,1.53
2023-04-01T10:44:22.262Z,1.57
2023-04-01T10:47:28.155Z,0.60
2023-04-01T10:50:31.360Z,1.27
2023-04-01T10:53:40.859Z,2.30
2023-04-01T10:56:46.680Z,0.70
2023-04-01T10:59:56.995Z,0.90
2023-04-01T11:03:04.590Z,1.00
2023-04-01T11:06:11.096Z,1.10
2023-04-01T11:09:16.923Z,0.73
2023-04-01T11:12:29.856Z,0.63
2023-04-01T11:15:29.598Z,0.87
2023-04-01T11:18:39.370Z,1.43
2023-04-01T11:21:48.506Z,1.90
2023-04-01T11:24:49.881Z,0.80
2023-04-01T11:27:46.261Z,0.70
2023-04-01T11:30:23.287Z,0.60
2023-04-01T11:33:00.893Z,0.87
2023-04-01T11:36:13.096Z,0.70
2023-04-01T11:39:05.084Z,1.27
2023-04-01T11:41:42.615Z,0.80
2023-04-01T11:44:20.552Z,0.73
2023-04-01T11:47:03.950Z,0.60
2023-04-01T11:49:48.295Z,0.70
2023-04-01T11:52:45.691Z,0.60
2023-04-01T11:55:42.872Z,0.80
2023-04-01T11:58:32.148Z,0.97
2023-04-01T12:01:27.665Z,0.70
2023-04-01T12:04:13.129Z,0.70
2023-04-01T12:06:49.923Z,0.70
2023-04-01T12:09:26.773Z,0.63
2023-04-01T12:12:10.415Z,0.90
2023-04-01T12:14:47.192Z,0.80
2023-04-01T12:17:28.347Z,0.70
2023-04-01T12:20:04.852Z,0.60
2023-04-01T12:22:45.245Z,1.80
2023-04-01T12:25:25.518Z,0.77
2023-04-01T12:28:06.924Z,0.60
2023-04-01T12:30:58.675Z,0.80
2023-04-01T12:33:52.081Z,0.63
2023-04-01T12:36:38.374Z,1.40
2023-04-01T12:39:46.560Z,6.00
2023-04-01T12:42:25.636Z,2.20
2023-04-01T12:45:05.664Z,2.20
2023-04-01T12:47:54.959Z,1.23
2023-04-01T12:50:34.115Z,2.37
2023-04-01T12:53:30.937Z,14.27
2023-04-01T12:56:01.659Z,15.03
2023-04-01T12:58:57.678Z,11.33
2023-04-01T13:01:45.243Z,3.30
2023-04-01T13:04:48.725Z,2.30
2023-04-01T13:07:44.765Z,7.30
2023-04-01T13:10:24.729Z,3.47
2023-04-01T13:13:21.951Z,5.80
2023-04-01T13:15:57.314Z,3.97
2023-04-01T13:18:34.901Z,2.33
2023-04-01T13:21:11.429Z,4.47
2023-04-01T13:23:51.412Z,4.03
2023-04-01T13:26:33.877Z,5.33
2023-04-01T13:29:11.004Z,6.17
2023-04-01T13:31:55.680Z,6.30
2023-04-01T13:34:39.256Z,2.47
2023-04-01T13:37:23.964Z,1.87
2023-04-01T13:40:08.452Z,1.73
2023-04-01T13:42:44.741Z,1.73
2023-04-01T13:45:20.789Z,1.97
2023-04-01T13:48:21.544Z,2.43
2023-04-01T13:51:18.000Z,2.33
2023-04-01T13:54:15.919Z,2.50
2023-04-01T13:56:55.901Z,1.70
2023-04-01T13:59:59.500Z,0.80
2023-04-01T14:02:55.903Z,0.80
2023-04-01T14:05:45.057Z,1.00
2023-04-01T14:08:27.199Z,1.50
2023-04-01T14:11:13.949Z,0.90
2023-04-01T14:13:52.625Z,0.93
2023-04-01T14:17:07.026Z,0.97
2023-04-01T14:19:52.182Z,1.73
2023-04-01T14:22:29.918Z,2.27
2023-04-01T14:25:22.916Z,2.33
2023-04-01T14:28:04.669Z,2.27
2023-04-01T14:31:05.129Z,1.50
2023-04-01T14:33:45.172Z,1.30
2023-04-01T14:36:45.745Z,1.47
2023-04-01T14:39:39.974Z,2.00
2023-04-01T14:42:39.252Z,1.40
2023-04-01T14:45:34.038Z,1.23
2023-04-01T14:48:19.645Z,1.67
2023-04-01T14:50:52.882Z,3.83
2023-04-01T14:53:31.980Z,0.70
2023-04-01T14:56:04.005Z,2.00
2023-04-01T14:58:47.423Z,0.80
2023-04-01T15:01:34.480Z,0.77
2023-04-01T15:04:26.538Z,0.90
2023-04-01T15:07:13.721Z,0.70
2023-04-01T15:09:47.470Z,1.30
2023-04-01T15:12:29.627Z,0.80
2023-04-01T15:15:17.718Z,0.63
2023-04-01T15:18:10.400Z,0.60
2023-04-01T15:20:59.328Z,0.70
2023-04-01T15:23:37.773Z,0.93
2023-04-01T15:26:18.821Z,0.70
2023-04-01T15:28:59.098Z,0.67
2023-04-01T15:31:35.350Z,0.73
2023-04-01T15:34:37.521Z,0.80
2023-04-01T15:37:15.260Z,0.60
2023-04-01T15:39:56.444Z,0.63
2023-04-01T15:42:45.832Z,1.17
2023-04-01T15:45:21.691Z,1.70
2023-04-01T15:48:02.220Z,0.87
2023-04-01T15:51:05.593Z,0.73
2023-04-01T15:54:01.027Z,0.80
2023-04-01T15:56:48.309Z,0.80
2023-04-01T15:59:30.518Z,0.90
2023-04-01T16:02:11.262Z,0.90
2023-04-01T16:04:53.681Z,1.50
2023-04-01T16:07:45.583Z,0.97
2023-04-01T16:10:39.440Z,1.20
2023-04-01T16:13:31.151Z,0.60
2023-04-01T16:16:08.956Z,3.20
2023-04-01T16:19:02.337Z,0.70
2023-04-01T16:21:41.479Z,1.30
2023-04-01T16:24:19.815Z,1.10
2023-04-01T16:26:56.447Z,0.80
2023-04-01T16:29:33.788Z,0.87
2023-04-01T16:32:31.642Z,1.40
2023-04-01T16:35:16.072Z,0.80
2023-04-01T16:37:51.018Z,1.60
2023-04-01T16:40:29.207Z,1.00
2023-04-01T16:43:09.933Z,1.23
2023-04-01T16:45:44.600Z,3.13
2023-04-01T16:48:17.867Z,1.10
2023-04-01T16:50:55.387Z,1.83
2023-04-01T16:53:34.595Z,1.80
2023-04-01T16:56:13.294Z,2.70
2023-04-01T16:59:04.363Z,2.00
2023-04-01T17:01:51.370Z,1.60
2023-04-01T17:04:31.315Z,1.70
2023-04-01T17:07:09.631Z,2.40
2023-04-01T17:09:51.890Z,3.33
2023-04-01T17:12:28.472Z,5.00
2023-04-01T17:15:06.213Z,5.00
2023-04-01T17:17:48.866Z,6.40
2023-04-01T17:20:34.612Z,7.07
2023-04-01T17:23:16.413Z,5.77
2023-04-01T17:26:07.526Z,3.43
2023-04-01T17:28:47.472Z,2.50
2023-04-01T17:31:32.351Z,2.50
2023-04-01T17:34:38.325Z,2.50
2023-04-01T17:37:25.057Z,0.90
2023-04-01T17:40:03.938Z,1.30
2023-04-01T17:42:42.143Z,3.03
2023-04-01T17:45:21.075Z,2.07
2023-04-01T17:48:05.288Z,2.73
2023-04-01T17:50:48.957Z,4.07
2023-04-01T17:53:27.023Z,3.63
2023-04-01T17:56:13.273Z,2.03
2023-04-01T17:58:49.988Z,2.60
2023-04-01T18:01:47.318Z,3.10
2023-04-01T18:04:44.549Z,2.13
2023-04-01T18:07:25.009Z,1.37
2023-04-01T18:10:06.670Z,1.93
2023-04-01T18:12:43.616Z,1.30
2023-04-01T18:15:22.202Z,2.67
2023-04-01T18:18:01.237Z,1.97
2023-04-01T18:20:40.841Z,2.43
2023-04-01T18:23:22.580Z,1.57
2023-04-01T18:25:56.775Z,1.73
2023-04-01T18:28:34.983Z,1.67
2023-04-01T18:31:11.475Z,1.30
2023-04-01T18:33:50.694Z,0.87
2023-04-01T18:36:35.803Z,1.20
2023-04-01T18:39:11.435Z,1.53
2023-04-01T18:41:56.605Z,1.10
2023-04-01T18:44:33.970Z,0.87
2023-04-01T18:47:25.323Z,1.40
2023-04-01T18:50:01.721Z,2.43
2023-04-01T18:52:41.418Z,0.80
2023-04-01T18:55:34.979Z,1.00
2023-04-01T18:58:26.948Z,1.17
2023-04-01T19:01:21.486Z,0.70
2023-04-01T19:04:00.623Z,1.00
2023-04-01T19:06:35.964Z,1.70
2023-04-01T19:09:20.910Z,1.90
2023-04-01T19:12:25.739Z,2.23
2023-04-01T19:15:19.548Z,1.47
2023-04-01T19:17:58.865Z,1.23
2023-04-01T19:20:33.051Z,3.33
2023-04-01T19:23:34.638Z,1.13
2023-04-01T19:26:13.056Z,3.03
2023-04-01T19:28:50.549Z,1.20
2023-04-01T19:31:38.804Z,1.13
2023-04-01T19:34:19.714Z,1.83
2023-04-01T19:36:53.611Z,1.20
2023-04-01T19:39:37.431Z,1.90
2023-04-01T19:42:22.651Z,6.53
2023-04-01T19:45:02.243Z,4.27
2023-04-01T19:47:48.979Z,5.13
2023-04-01T19:50:36.638Z,5.33
2023-04-01T19:53:21.568Z,5.10
2023-04-01T19:55:58.139Z,5.60
2023-04-01T19:58:36.587Z,5.63
2023-04-01T20:01:10.799Z,5.53
2023-04-01T20:03:45.145Z,6.27
2023-04-01T20:06:23.657Z,6.53
2023-04-01T20:09:10.064Z,4.30
2023-04-01T20:11:54.725Z,6.70
2023-04-01T20:14:33.504Z,4.27
2023-04-01T20:17:10.904Z,4.33
2023-04-01T20:19:43.711Z,3.57
2023-04-01T20:22:31.589Z,3.60
2023-04-01T20:25:08.969Z,5.30
2023-04-01T20:27:43.437Z,3.43
2023-04-01T20:30:47.814Z,2.70
2023-04-01T20:33:38.801Z,4.30
2023-04-01T20:36:17.185Z,5.03
2023-04-01T20:39:26.637Z,3.73
2023-04-01T20:42:25.746Z,3.47
2023-04-01T20:45:04.856Z,2.73
2023-04-01T20:47:47.579Z,4.63
2023-04-01T20:50:24.490Z,2.80
2023-04-01T20:53:00.353Z,3.40
2023-04-01T20:56:03.094Z,2.90
2023-04-01T20:58:46.884Z,4.47
2023-04-01T21:01:22.944Z,4.60
2023-04-01T21:03:58.895Z,3.03
2023-04-01T21:06:52.641Z,3.43
2023-04-01T21:09:35.805Z,2.73
2023-04-01T21:12:17.509Z,2.37
2023-04-01T21:15:20.042Z,2.53
2023-04-01T21:18:05.390Z,2.50
2023-04-01T21:21:12.118Z,1.10
2023-04-01T21:23:58.755Z,2.47
2023-04-01T21:26:50.133Z,1.43
2023-04-01T21:29:41.824Z,1.30
2023-04-01T21:32:40.205Z,1.50
2023-04-01T21:35:18.819Z,1.20
2023-04-01T21:38:05.000Z,1.50
2023-04-01T21:41:00.618Z,1.20
2023-04-01T21:44:02.130Z,1.10
2023-04-01T21:46:55.275Z,1.23
2023-04-01T21:49:39.828Z,1.53
2023-04-01T21:52:37.386Z,1.10
2023-04-01T21:55:41.366Z,1.63
2023-04-01T21:58:43.021Z,1.27
2023-04-01T22:01:36.350Z,2.43
2023-04-01T22:04:25.239Z,3.77
2023-04-01T22:07:02.866Z,2.30
2023-04-01T22:09:39.433Z,1.90
2023-04-01T22:12:16.369Z,1.43
2023-04-01T22:14:59.649Z,1.67
2023-04-01T22:17:34.294Z,3.70
2023-04-01T22:20:14.372Z,2.23
2023-04-01T22:22:59.655Z,2.60
2023-04-01T22:25:33.878Z,2.80
2023-04-01T22:28:08.432Z,2.23
2023-04-01T22:30:44.210Z,4.53
2023-04-01T22:33:19.966Z,3.50
2023-04-01T22:35:56.562Z,3.40
2023-04-01T22:38:43.511Z,3.30
2023-04-01T22:41:19.707Z,2.70
2023-04-01T22:43:53.254Z,1.87
2023-04-01T22:46:36.094Z,2.83
2023-04-01T22:49:12.727Z,3.03
2023-04-01T22:51:47.580Z,3.10
2023-04-01T22:54:23.621Z,3.87
2023-04-01T22:56:57.036Z,5.90
2023-04-01T22:59:40.581Z,5.67
2023-04-01T23:02:17.153Z,5.40
2023-04-01T23:04:51.152Z,6.47
2023-04-01T23:07:38.160Z,4.43
2023-04-01T23:10:15.373Z,4.10
2023-04-01T23:12:46.552Z,3.20
2023-04-01T23:15:20.840Z,3.50
2023-04-01T23:18:00.004Z,2.40
2023-04-01T23:20:39.855Z,2.83
2023-04-01T23:23:27.360Z,2.90
2023-04-01T23:26:03.175Z,2.30
2023-04-01T23:28:48.282Z,2.37
2023-04-01T23:31:40.337Z,2.70
2023-04-01T23:34:36.756Z,2.17
2023-04-01T23:37:11.243Z,2.80
2023-04-01T23:39:45.106Z,1.53
2023-04-01T23:42:18.652Z,2.40
2023-04-01T23:44:51.201Z,1.53
2023-04-01T23:47:24.148Z,3.40
2023-04-01T23:50:00.067Z,2.27
2023-04-01T23:52:34.103Z,1.20
2023-04-01T23:55:14.966Z,1.20
2023-04-01T23:57:45.640Z,4.10
